Time;durP1;ratioP1;P1;durP2;ratioP2;P2;SDS_P1;SDS_P2;PMS_P1;PMS_P2;Temp;Humidity;BMP_temperature;BMP_pressure;BME280_temperature;BME280_humidity;BME280_pressure;Samples;Min_cycle;Max_cycle;Signal;HPM_P1;HPM_P2
2023/06/16 00:01:08;;;;;;;;;4.00;3.67;;;;;18.07;72.20;100713.09;5051275;28;45253;-76
2023/06/16 00:03:34;;;;;;;;;6.00;4.67;;;;;18.12;72.51;100716.59;5035872;28;45384;-77
2023/06/16 00:06:12;;;;;;;;;5.33;4.67;;;;;18.03;72.35;100712.19;5044135;28;45691;-76
2023/06/16 00:08:44;;;;;;;;;5.67;5.67;;;;;18.00;72.65;100701.59;5041436;28;45525;-77
2023/06/16 00:11:10;;;;;;;;;5.33;5.00;;;;;18.07;72.20;100702.53;5022605;28;45409;-75
2023/06/16 00:13:36;;;;;;;;;5.67;5.67;;;;;18.03;73.31;100696.34;5051196;28;45401;-77
2023/06/16 00:16:02;;;;;;;;;5.67;5.00;;;;;17.99;73.10;100694.56;5041153;28;45523;-76
2023/06/16 00:18:28;;;;;;;;;5.33;4.67;;;;;18.07;73.06;100705.16;5053548;28;45342;-77
2023/06/16 00:20:54;;;;;;;;;7.00;5.67;;;;;18.03;73.56;100701.63;5034774;28;45504;-77
2023/06/16 00:23:23;;;;;;;;;4.67;4.67;;;;;18.02;73.47;100699.84;5042089;28;45407;-76
2023/06/16 00:25:48;;;;;;;;;4.33;3.00;;;;;18.02;73.67;100691.03;5049650;28;46079;-77
2023/06/16 00:28:14;;;;;;;;;4.33;4.00;;;;;17.98;73.56;100692.78;5044413;28;45805;-76
2023/06/16 00:30:40;;;;;;;;;5.67;4.00;;;;;17.94;74.29;100696.31;5043806;28;45511;-76
2023/06/16 00:33:05;;;;;;;;;4.33;4.33;;;;;17.95;74.27;100692.81;5039713;28;45315;-77
2023/06/16 00:35:31;;;;;;;;;4.33;4.33;;;;;17.93;74.29;100686.63;5053437;28;46125;-76
2023/06/16 00:37:57;;;;;;;;;4.67;4.67;;;;;17.91;75.03;100687.53;5038480;28;45450;-76
2023/06/16 00:40:22;;;;;;;;;5.33;5.00;;;;;17.97;74.37;100683.13;5046848;28;46491;-76
2023/06/16 00:42:48;;;;;;;;;4.67;4.67;;;;;18.05;73.96;100673.44;5039347;28;45242;-76
2023/06/16 00:45:14;;;;;;;;;5.67;4.67;;;;;18.23;73.41;100685.78;5035560;28;46860;-76
2023/06/16 00:47:40;;;;;;;;;4.33;4.33;;;;;18.33;73.15;100673.44;5038743;28;45331;-76
2023/06/16 00:50:07;;;;;;;;;5.00;4.67;;;;;18.25;72.93;100652.28;5051443;28;45485;-77
2023/06/16 00:52:35;;;;;;;;;5.00;5.00;;;;;18.45;72.85;100672.56;5039358;28;45571;-77
2023/06/16 00:55:02;;;;;;;;;4.00;3.67;;;;;18.50;72.61;100673.44;5052938;28;45561;-76
2023/06/16 00:57:29;;;;;;;;;3.33;3.33;;;;;18.45;72.51;100656.69;5039612;28;45492;-76
2023/06/16 00:59:55;;;;;;;;;6.00;5.00;;;;;18.43;72.95;100659.34;5043317;28;45525;-77
2023/06/16 01:02:21;;;;;;;;;5.67;5.00;;;;;18.46;72.92;100654.06;5052829;28;45569;-76
2023/06/16 01:04:48;;;;;;;;;4.00;4.00;;;;;18.50;72.75;100649.63;5038694;28;45510;-77
2023/06/16 01:07:28;;;;;;;;;5.33;5.33;;;;;18.53;72.56;100648.75;5053580;28;45602;-76
2023/06/16 01:10:07;;;;;;;;;5.67;5.67;;;;;18.53;72.96;100651.41;5038334;28;45431;-77
2023/06/16 01:12:55;;;;;;;;;5.67;5.00;;;;;18.44;72.92;100621.44;5037056;28;45569;-76
2023/06/16 01:15:24;;;;;;;;;4.67;4.67;;;;;18.54;73.28;100640.81;5054396;28;46919;-77
2023/06/16 01:17:54;;;;;;;;;6.67;6.67;;;;;18.51;73.07;100632.00;5040119;28;45550;-77
2023/06/16 01:20:33;;;;;;;;;5.67;5.67;;;;;18.46;73.69;100637.28;5045507;28;45496;-75
2023/06/16 01:23:26;;;;;;;;;5.00;5.00;;;;;18.47;73.60;100634.66;5044379;28;45515;-76
2023/06/16 01:25:55;;;;;;;;;6.00;5.00;;;;;18.53;72.79;100633.75;5039640;28;46584;-76
2023/06/16 01:28:29;;;;;;;;;5.67;5.00;;;;;18.57;72.91;100634.66;5039845;28;45360;-76
2023/06/16 01:30:55;;;;;;;;;9.67;8.00;;;;;18.54;72.90;100624.06;5040594;28;45590;-76
2023/06/16 01:33:23;;;;;;;;;4.33;4.33;;;;;18.49;73.80;100643.47;5058072;28;45497;-76
2023/06/16 01:35:50;;;;;;;;;4.33;3.67;;;;;18.40;73.52;100653.16;5057624;28;45979;-76
2023/06/16 01:38:18;;;;;;;;;4.67;4.67;;;;;18.31;74.21;100643.47;5040547;28;45595;-77
2023/06/16 01:40:44;;;;;;;;;5.33;4.67;;;;;18.22;74.35;100633.81;5047025;28;45603;-76
2023/06/16 01:43:10;;;;;;;;;4.00;4.00;;;;;18.17;74.78;100637.31;5037335;28;45240;-75
2023/06/16 01:45:37;;;;;;;;;6.00;5.00;;;;;18.16;74.60;100632.91;5047606;28;45394;-76
2023/06/16 01:48:03;;;;;;;;;4.00;4.00;;;;;18.11;74.93;100629.38;5040262;28;45667;-76
2023/06/16 01:50:30;;;;;;;;;5.00;4.00;;;;;18.13;75.60;100633.78;5039573;28;45526;-74
2023/06/16 01:52:55;;;;;;;;;5.00;5.00;;;;;18.15;75.27;100641.72;5058396;28;45248;-74
2023/06/16 01:55:21;;;;;;;;;5.00;5.00;;;;;18.04;75.64;100624.06;5057316;28;46229;-74
2023/06/16 01:57:47;;;;;;;;;5.33;5.33;;;;;18.10;75.47;100628.47;5058589;28;45491;-73
2023/06/16 02:00:21;;;;;;;;;5.00;5.00;;;;;18.23;75.24;100635.53;5058813;28;45279;-75
2023/06/16 02:02:56;;;;;;;;;5.33;5.33;;;;;18.12;76.38;100621.44;5042283;28;45292;-74
2023/06/16 02:05:24;;;;;;;;;6.67;6.33;;;;;18.17;76.23;100632.03;5057925;28;45956;-74
2023/06/16 02:07:53;;;;;;;;;6.00;5.33;;;;;18.20;75.56;100630.25;5044052;28;45478;-73
2023/06/16 02:10:21;;;;;;;;;5.00;5.00;;;;;18.21;75.86;100617.94;5036555;28;45256;-74
2023/06/16 02:12:48;;;;;;;;;6.00;5.33;;;;;18.30;75.40;100615.25;5042481;28;45520;-74
2023/06/16 02:15:18;;;;;;;;;4.33;4.33;;;;;18.30;75.44;100617.91;5056964;28;45487;-76
2023/06/16 02:17:45;;;;;;;;;7.00;5.00;;;;;18.34;75.75;100624.94;5057904;28;45461;-74
2023/06/16 02:20:12;;;;;;;;;5.33;5.00;;;;;18.38;75.36;100618.81;5035891;28;45276;-74
2023/06/16 02:22:37;;;;;;;;;5.00;4.67;;;;;18.38;74.58;100602.94;5037550;28;45535;-74
2023/06/16 02:25:03;;;;;;;;;2.00;1.67;;;;;18.43;74.56;100602.91;5019316;28;46297;-74
2023/06/16 02:27:29;;;;;;;;;6.33;5.33;;;;;18.53;74.23;100601.16;5048796;28;45476;-74
2023/06/16 02:29:55;;;;;;;;;5.00;4.00;;;;;18.56;74.31;100603.75;5057747;28;45425;-76
2023/06/16 02:32:20;;;;;;;;;5.00;4.67;;;;;18.63;73.83;100605.53;5058019;28;46023;-74
2023/06/16 02:34:46;;;;;;;;;3.67;3.67;;;;;18.64;74.05;100608.19;5042594;28;46230;-74
2023/06/16 02:37:13;;;;;;;;;5.00;4.67;;;;;18.62;74.26;100604.66;5037608;28;45282;-77
2023/06/16 02:39:39;;;;;;;;;4.00;4.00;;;;;18.59;74.15;100598.47;5037667;28;45450;-74
2023/06/16 02:42:05;;;;;;;;;8.00;5.33;;;;;18.58;74.02;100596.72;5046555;28;45363;-74
2023/06/16 02:44:31;;;;;;;;;7.00;5.00;;;;;18.62;73.87;100598.47;5057399;28;46042;-74
2023/06/16 02:46:57;;;;;;;;;6.00;4.33;;;;;18.60;74.36;100594.94;5057465;28;45356;-74
2023/06/16 02:49:23;;;;;;;;;5.67;4.00;;;;;18.62;73.91;100602.00;5052887;28;45378;-74
2023/06/16 02:51:50;;;;;;;;;4.67;4.33;;;;;18.61;73.85;100599.38;5037432;28;45418;-73
2023/06/16 02:54:15;;;;;;;;;5.67;4.67;;;;;18.59;74.32;100591.41;5037389;28;46197;-74
2023/06/16 02:56:41;;;;;;;;;7.00;5.00;;;;;18.59;74.37;100582.63;5037007;28;45751;-75
2023/06/16 02:59:07;;;;;;;;;5.33;5.00;;;;;18.62;74.33;100580.84;5038699;28;45581;-74
2023/06/16 03:01:32;;;;;;;;;3.00;3.00;;;;;18.63;74.24;100577.31;5036115;28;45641;-75
2023/06/16 03:03:59;;;;;;;;;3.33;2.67;;;;;18.66;74.28;100587.88;5050231;28;46072;-74
2023/06/16 03:06:29;;;;;;;;;4.67;4.67;;;;;18.66;74.49;100584.34;5057196;28;45427;-74
2023/06/16 03:08:58;;;;;;;;;4.67;4.67;;;;;18.54;74.50;100566.72;5055773;28;45474;-74
2023/06/16 03:11:24;;;;;;;;;6.00;5.33;;;;;18.57;74.98;100589.66;5057246;28;45399;-74
2023/06/16 03:13:49;;;;;;;;;6.00;4.33;;;;;18.53;75.08;100572.91;5057484;28;46244;-74
2023/06/16 03:16:16;;;;;;;;;6.00;5.00;;;;;18.47;75.05;100592.31;5057058;28;45291;-74
2023/06/16 03:18:42;;;;;;;;;6.33;6.33;;;;;18.35;75.75;100581.78;5056006;28;45302;-74
2023/06/16 03:21:08;;;;;;;;;5.67;5.67;;;;;18.35;75.43;100592.34;5056767;28;45436;-73
2023/06/16 03:23:34;;;;;;;;;5.00;5.00;;;;;18.27;75.91;100580.91;5056826;28;45449;-74
2023/06/16 03:25:59;;;;;;;;;6.33;5.00;;;;;18.18;76.05;100586.19;5056945;28;45321;-77
2023/06/16 03:28:25;;;;;;;;;6.67;6.33;;;;;18.13;76.22;100582.69;5057033;28;45145;-76
2023/06/16 03:30:53;;;;;;;;;5.00;4.67;;;;;18.17;75.92;100581.78;5057422;28;45421;-76
2023/06/16 03:33:20;;;;;;;;;6.00;5.33;;;;;18.25;75.91;100595.88;5038856;28;45703;-77
2023/06/16 03:35:45;;;;;;;;;4.33;4.33;;;;;18.24;75.58;100589.72;5037860;28;45335;-77
2023/06/16 03:38:11;;;;;;;;;3.67;3.67;;;;;18.27;75.86;100586.19;5056957;28;45373;-77
2023/06/16 03:40:38;;;;;;;;;6.00;6.00;;;;;18.32;75.65;100592.34;5057239;28;45330;-77
2023/06/16 03:43:03;;;;;;;;;6.00;5.33;;;;;18.39;75.43;100596.75;5056628;28;45952;-75
2023/06/16 03:45:29;;;;;;;;;3.67;3.67;;;;;18.40;75.63;100601.16;5055366;28;45274;-75
2023/06/16 03:47:54;;;;;;;;;6.67;6.67;;;;;18.13;75.87;100570.34;5056994;28;45438;-76
2023/06/16 03:50:20;;;;;;;;;4.67;4.67;;;;;18.26;74.89;100595.00;5057441;28;45239;-77
2023/06/16 03:52:46;;;;;;;;;5.00;5.00;;;;;18.18;74.99;100579.13;5056657;28;45252;-77
2023/06/16 03:55:13;;;;;;;;;5.67;5.00;;;;;18.26;75.37;100598.53;5056843;28;45296;-74
2023/06/16 03:57:39;;;;;;;;;4.67;4.67;;;;;18.18;74.93;100575.59;5055313;28;45247;-74
2023/06/16 04:00:09;;;;;;;;;5.00;5.00;;;;;18.25;74.76;100590.59;5055370;28;45300;-74
2023/06/16 04:02:35;;;;;;;;;5.00;5.00;;;;;18.21;74.85;100587.06;5054160;28;45321;-73
2023/06/16 04:05:01;;;;;;;;;5.00;5.00;;;;;18.24;74.80;100596.75;5038053;28;45330;-74
2023/06/16 04:07:27;;;;;;;;;5.33;5.33;;;;;18.21;75.30;100594.13;5039573;28;45446;-74
2023/06/16 04:09:53;;;;;;;;;4.67;4.33;;;;;18.06;75.53;100580.03;5040222;28;45570;-77
2023/06/16 04:12:18;;;;;;;;;5.67;5.33;;;;;18.02;75.92;100599.41;5039474;28;46092;-77
2023/06/16 04:14:44;;;;;;;;;6.67;6.33;;;;;18.05;75.70;100602.06;5021806;28;45502;-76
2023/06/16 04:17:09;;;;;;;;;5.00;4.33;;;;;18.08;75.28;100599.44;5039928;28;45169;-77
2023/06/16 04:19:35;;;;;;;;;4.67;4.67;;;;;18.09;74.91;100598.53;5039833;28;45608;-77
2023/06/16 04:22:00;;;;;;;;;5.33;4.67;;;;;18.01;75.06;100581.78;5039722;28;46014;-76
2023/06/16 04:24:26;;;;;;;;;6.33;5.33;;;;;18.02;74.91;100596.75;5039741;28;45370;-74
2023/06/16 04:26:53;;;;;;;;;4.33;4.33;;;;;18.00;75.29;100584.44;5040075;28;45434;-75
2023/06/16 04:29:20;;;;;;;;;4.67;4.67;;;;;18.07;75.01;100596.78;5022023;28;45355;-75
2023/06/16 04:31:50;;;;;;;;;5.33;5.33;;;;;18.03;75.22;100587.97;5039290;28;46187;-74
2023/06/16 04:34:16;;;;;;;;;5.67;5.00;;;;;18.03;75.46;100582.69;5038105;28;45835;-75
2023/06/16 04:36:44;;;;;;;;;5.00;4.33;;;;;18.13;75.01;100593.25;5039296;28;45513;-77
2023/06/16 04:39:14;;;;;;;;;5.67;5.00;;;;;18.15;74.56;100589.72;5038505;28;45541;-75
2023/06/16 04:41:42;;;;;;;;;5.00;5.00;;;;;18.13;74.77;100577.41;5039214;28;46190;-73
2023/06/16 04:44:08;;;;;;;;;8.33;8.00;;;;;18.20;74.90;100600.28;5039328;28;45513;-74
2023/06/16 04:46:34;;;;;;;;;6.33;5.33;;;;;18.20;74.58;100598.50;5039381;28;45324;-74
2023/06/16 04:48:59;;;;;;;;;4.67;3.33;;;;;18.13;74.33;100591.50;5039464;28;45363;-74
2023/06/16 04:51:26;;;;;;;;;10.67;10.67;;;;;18.17;74.45;100602.94;5021451;28;47698;-74
2023/06/16 04:53:53;;;;;;;;;9.33;8.67;;;;;18.18;74.09;100604.69;5039564;28;45287;-74
2023/06/16 04:56:19;;;;;;;;;7.67;7.00;;;;;18.28;74.03;100612.63;5039133;28;45406;-75
2023/06/16 04:58:44;;;;;;;;;6.33;6.33;;;;;18.23;74.03;100598.53;5039396;28;45362;-74
2023/06/16 05:01:11;;;;;;;;;5.33;5.00;;;;;18.28;73.90;100595.88;5047046;28;45994;-74
2023/06/16 05:03:36;;;;;;;;;6.00;6.00;;;;;18.29;73.90;100589.72;5047143;28;45401;-74
2023/06/16 05:06:02;;;;;;;;;5.33;4.33;;;;;18.42;74.42;100606.44;5037311;28;45547;-73
2023/06/16 05:08:28;;;;;;;;;5.00;5.00;;;;;18.44;73.82;100602.94;5039178;28;45416;-74
2023/06/16 05:10:54;;;;;;;;;4.33;4.33;;;;;18.40;73.75;100590.59;5038893;28;46134;-77
2023/06/16 05:13:19;;;;;;;;;6.00;6.00;;;;;18.57;73.81;100610.84;5037473;28;45253;-75
2023/06/16 05:15:45;;;;;;;;;5.00;4.67;;;;;18.51;73.66;100598.50;5036408;28;45435;-74
2023/06/16 05:18:10;;;;;;;;;4.00;4.00;;;;;18.65;73.38;100609.06;5039109;28;45304;-74
2023/06/16 05:20:36;;;;;;;;;5.33;5.33;;;;;18.65;73.74;100609.06;5038229;28;45473;-73
2023/06/16 05:23:03;;;;;;;;;6.00;5.00;;;;;18.67;74.02;100609.94;5048792;28;45482;-74
2023/06/16 05:25:29;;;;;;;;;5.67;5.67;;;;;18.61;73.90;100583.50;5052203;28;45445;-74
2023/06/16 05:27:55;;;;;;;;;5.33;5.00;;;;;18.84;73.59;100589.63;5046845;28;45474;-74
2023/06/16 05:30:20;;;;;;;;;6.33;6.00;;;;;18.99;72.99;100585.16;5046788;28;45476;-74
2023/06/16 05:32:46;;;;;;;;;5.33;5.00;;;;;19.23;72.20;100598.28;5030580;28;45439;-74
2023/06/16 05:35:11;;;;;;;;;5.33;5.00;;;;;19.39;72.02;100593.78;5047242;28;45533;-74
2023/06/16 05:37:37;;;;;;;;;6.00;5.00;;;;;19.48;71.62;100593.75;5049696;28;45331;-74
2023/06/16 05:40:03;;;;;;;;;6.00;6.00;;;;;19.59;70.77;100588.38;5046270;28;45401;-75
2023/06/16 05:42:28;;;;;;;;;6.67;6.33;;;;;19.73;70.11;100601.56;5048911;28;45442;-74
2023/06/16 05:44:54;;;;;;;;;4.67;4.67;;;;;19.56;70.59;100603.44;5029419;28;45534;-75
2023/06/16 05:47:20;;;;;;;;;7.33;7.00;;;;;19.65;70.09;100598.94;5049729;28;45203;-75
2023/06/16 05:49:45;;;;;;;;;5.00;4.00;;;;;19.70;69.88;100600.69;5058411;28;45926;-75
2023/06/16 05:52:11;;;;;;;;;7.33;5.33;;;;;19.74;69.86;100597.16;5039794;28;45493;-75
2023/06/16 05:54:36;;;;;;;;;6.00;6.00;;;;;19.84;69.45;100604.16;5027976;28;45565;-75
2023/06/16 05:57:02;;;;;;;;;7.00;5.33;;;;;19.97;69.04;100603.16;5048707;28;45423;-74
2023/06/16 05:59:28;;;;;;;;;8.00;5.00;;;;;20.11;68.61;100597.72;5047213;28;45332;-74
2023/06/16 06:01:54;;;;;;;;;5.00;4.00;;;;;20.26;68.60;100600.25;5046699;28;45330;-73
2023/06/16 06:04:33;;;;;;;;;6.33;5.00;;;;;20.53;67.46;100598.25;5040240;28;45413;-74
2023/06/16 06:07:00;;;;;;;;;4.67;4.67;;;;;20.82;67.15;100587.34;5038645;28;45348;-74
2023/06/16 06:09:26;;;;;;;;;5.00;4.00;;;;;21.06;66.09;100588.81;5036553;28;46680;-74
2023/06/16 06:11:51;;;;;;;;;4.00;4.00;;;;;21.28;65.71;100587.66;5038036;28;45351;-75
2023/06/16 06:14:18;;;;;;;;;5.00;4.67;;;;;21.38;65.15;100582.19;5037918;28;45444;-73
2023/06/16 06:16:44;;;;;;;;;4.33;4.00;;;;;22.51;62.76;100577.78;5038165;28;45383;-74
2023/06/16 06:19:09;;;;;;;;;6.33;5.00;;;;;23.68;58.43;100578.03;5037419;28;45567;-75
2023/06/16 06:21:36;;;;;;;;;6.00;6.00;;;;;24.75;56.28;100580.63;5037569;28;45461;-75
2023/06/16 06:24:02;;;;;;;;;6.67;5.67;;;;;26.46;51.74;100586.00;5038018;28;45381;-75
2023/06/16 06:26:28;;;;;;;;;7.00;6.00;;;;;27.22;48.86;100559.09;5037633;28;45303;-74
2023/06/16 06:28:53;;;;;;;;;7.00;6.00;;;;;28.35;47.22;100584.03;5036320;28;45504;-73
2023/06/16 06:31:19;;;;;;;;;5.33;5.00;;;;;29.22;44.60;100574.81;5037027;28;45421;-75
2023/06/16 06:33:45;;;;;;;;;4.00;4.00;;;;;29.88;45.03;100572.53;5037560;28;45366;-75
2023/06/16 06:36:11;;;;;;;;;5.00;5.00;;;;;31.31;41.40;100578.47;5037498;28;45274;-74
2023/06/16 06:38:37;;;;;;;;;7.67;5.67;;;;;32.41;39.18;100582.97;5024343;28;46591;-76
2023/06/16 06:41:04;;;;;;;;;5.00;4.33;;;;;33.23;40.14;100578.84;5046185;28;45400;-74
2023/06/16 06:43:29;;;;;;;;;7.00;5.00;;;;;33.55;35.00;100568.59;5047426;28;45336;-75
2023/06/16 06:45:55;;;;;;;;;4.33;4.33;;;;;33.94;35.87;100583.19;5040347;28;45724;-76
2023/06/16 06:48:20;;;;;;;;;6.00;5.00;;;;;34.55;34.09;100590.84;5047635;28;45521;-79
2023/06/16 06:50:48;;;;;;;;;4.00;4.00;;;;;35.03;33.41;100540.34;5046789;28;45568;-79
2023/06/16 06:53:13;;;;;;;;;4.33;4.00;;;;;35.94;32.13;100592.59;5027343;28;45479;-78
2023/06/16 06:55:39;;;;;;;;;4.67;3.67;;;;;36.37;31.00;100606.50;5029382;28;45384;-78
2023/06/16 06:58:04;;;;;;;;;2.00;1.67;;;;;36.97;33.17;100588.19;5046718;28;45576;-74
2023/06/16 07:00:30;;;;;;;;;3.00;3.00;;;;;37.32;30.80;100587.19;5048077;28;45495;-78
2023/06/16 07:02:55;;;;;;;;;3.00;3.00;;;;;38.08;30.38;100594.59;5027363;28;45476;-76
2023/06/16 07:05:21;;;;;;;;;4.33;3.67;;;;;38.52;28.30;100599.00;5046801;28;45446;-77
2023/06/16 07:07:46;;;;;;;;;3.00;2.33;;;;;38.72;29.15;100589.03;5046419;28;45469;-80
2023/06/16 07:10:12;;;;;;;;;3.67;3.00;;;;;39.22;27.82;100571.00;5045007;28;45473;-80
2023/06/16 07:12:37;;;;;;;;;3.33;3.33;;;;;40.41;27.61;100589.19;5028975;28;45576;-77
2023/06/16 07:15:03;;;;;;;;;4.00;3.67;;;;;40.97;26.01;100583.84;5046034;28;45510;-77
2023/06/16 07:17:30;;;;;;;;;4.00;3.67;;;;;41.34;25.45;100592.91;5048599;28;47263;-77
2023/06/16 07:19:56;;;;;;;;;4.00;3.67;;;;;41.19;25.84;100585.34;5047238;28;45378;-78
2023/06/16 07:22:21;;;;;;;;;2.00;2.00;;;;;41.51;25.33;100568.44;5044488;28;45469;-76
2023/06/16 07:24:47;;;;;;;;;4.33;4.00;;;;;41.64;24.41;100577.16;5029887;28;45682;-75
2023/06/16 07:27:13;;;;;;;;;3.00;3.00;;;;;41.67;24.14;100578.75;5047383;28;47527;-75
2023/06/16 07:29:38;;;;;;;;;3.00;3.00;;;;;41.64;24.78;100571.69;5055796;28;45369;-79
2023/06/16 07:32:05;;;;;;;;;3.00;3.00;;;;;41.63;23.70;100564.47;5056361;28;45544;-78
2023/06/16 07:34:32;;;;;;;;;4.00;4.00;;;;;41.56;24.16;100560.59;5051315;28;45518;-79
2023/06/16 07:36:57;;;;;;;;;3.00;3.00;;;;;42.21;23.93;100567.78;5027828;28;45509;-78
2023/06/16 07:39:24;;;;;;;;;3.00;3.00;;;;;42.64;23.98;100528.44;5044695;28;45371;-78
2023/06/16 07:41:49;;;;;;;;;3.67;3.67;;;;;42.81;23.03;100556.00;5049074;28;45503;-74
2023/06/16 07:44:15;;;;;;;;;4.00;3.00;;;;;43.15;22.84;100553.25;5050838;28;45588;-81
2023/06/16 07:46:45;;;;;;;;;3.33;3.33;;;;;43.57;23.90;100551.50;5036564;28;47740;-76
2023/06/16 07:49:11;;;;;;;;;5.33;5.33;;;;;44.15;22.49;100546.94;5044804;28;45512;-82
2023/06/16 07:51:38;;;;;;;;;6.67;6.67;;;;;43.73;22.00;100550.69;5035766;28;45423;-77
2023/06/16 07:54:03;;;;;;;;;6.00;6.00;;;;;43.83;22.21;100548.63;5040683;28;45383;-78
2023/06/16 07:56:29;;;;;;;;;4.00;4.00;;;;;43.74;22.89;100549.69;5047567;28;45409;-77
2023/06/16 07:58:54;;;;;;;;;6.00;6.00;;;;;44.63;21.82;100545.16;5049384;28;45513;-78
2023/06/16 08:01:20;;;;;;;;;7.00;6.33;;;;;43.93;22.13;100532.81;5047895;28;45369;-78
2023/06/16 08:03:46;;;;;;;;;7.33;7.00;;;;;42.03;24.43;100532.13;5048067;28;45492;-78
2023/06/16 08:06:12;;;;;;;;;7.00;7.00;;;;;41.45;24.54;100533.41;5038549;28;45360;-78
2023/06/16 08:08:37;;;;;;;;;6.00;6.00;;;;;42.20;24.02;100523.00;5027785;28;45773;-75
2023/06/16 08:11:03;;;;;;;;;7.33;7.00;;;;;41.47;25.12;100534.13;5047386;28;45539;-76
2023/06/16 08:13:29;;;;;;;;;7.00;7.00;;;;;41.22;26.15;100536.56;5050107;28;45392;-80
2023/06/16 08:15:56;;;;;;;;;6.33;6.00;;;;;41.64;25.30;100532.44;5048617;28;45715;-78
2023/06/16 08:18:21;;;;;;;;;8.67;8.00;;;;;41.90;25.17;100485.84;5040180;28;45537;-75
2023/06/16 08:20:47;;;;;;;;;7.33;7.33;;;;;42.98;24.02;100524.84;5059367;28;45440;-79
2023/06/16 08:23:13;;;;;;;;;7.33;7.33;;;;;43.81;23.54;100524.03;5059563;28;45503;-78
2023/06/16 08:25:39;;;;;;;;;6.33;6.33;;;;;44.19;22.42;100507.00;5041125;28;45488;-74
2023/06/16 08:28:07;;;;;;;;;6.00;6.00;;;;;43.40;23.47;100506.63;5057775;28;45456;-75
2023/06/16 08:30:35;;;;;;;;;6.00;6.00;;;;;44.02;23.49;100525.44;5040927;28;45501;-76
2023/06/16 08:33:01;;;;;;;;;8.67;7.67;;;;;44.64;21.68;100519.34;5049526;28;45423;-78
2023/06/16 08:35:28;;;;;;;;;8.67;7.67;;;;;44.96;21.53;100523.88;5045666;28;46368;-76
2023/06/16 08:37:54;;;;;;;;;8.67;8.67;;;;;44.96;20.98;100517.50;5048243;28;45583;-76
2023/06/16 08:40:19;;;;;;;;;11.33;10.00;;;;;44.63;22.36;100518.47;5048321;28;45500;-78
2023/06/16 08:42:47;;;;;;;;;9.33;8.00;;;;;45.09;22.24;100516.91;5042383;28;45345;-75
2023/06/16 08:45:13;;;;;;;;;8.67;8.67;;;;;44.96;21.67;100512.84;5038848;28;45333;-74
2023/06/16 08:47:40;;;;;;;;;9.00;9.00;;;;;43.42;23.12;100491.66;5038428;28;45462;-73
2023/06/16 08:50:09;;;;;;;;;10.67;9.00;;;;;43.20;23.35;100475.78;5021729;28;45392;-78
2023/06/16 08:52:42;;;;;;;;;7.33;7.33;;;;;41.72;24.77;100492.25;5042554;28;45431;-74
2023/06/16 08:55:16;;;;;;;;;9.00;8.67;;;;;40.35;26.05;100464.72;5045030;28;45505;-76
2023/06/16 08:57:47;;;;;;;;;16.00;14.00;;;;;39.96;26.76;100489.41;5049117;28;45317;-74
2023/06/16 09:00:14;;;;;;;;;11.00;11.00;;;;;39.95;26.51;100487.69;5044154;28;45460;-76
2023/06/16 09:02:42;;;;;;;;;13.33;13.00;;;;;39.57;26.45;100473.03;5039461;28;45932;-75
2023/06/16 09:05:16;;;;;;;;;11.33;11.33;;;;;39.44;27.57;100474.31;5022229;28;45450;-74
2023/06/16 09:07:45;;;;;;;;;14.00;13.00;;;;;40.07;26.58;100477.47;5039098;28;45422;-75
2023/06/16 09:10:11;;;;;;;;;12.00;12.00;;;;;40.25;26.12;100449.31;5039571;28;45454;-74
2023/06/16 09:12:37;;;;;;;;;9.33;8.67;;;;;40.55;25.43;100460.03;5039840;28;45325;-74
2023/06/16 09:15:10;;;;;;;;;13.33;12.67;;;;;40.84;26.05;100461.78;5038675;28;45504;-76
2023/06/16 09:17:37;;;;;;;;;10.67;10.67;;;;;40.93;25.39;100455.41;5039035;28;45228;-74
2023/06/16 09:20:08;;;;;;;;;9.67;9.67;;;;;41.28;25.63;100466.59;5039412;28;45370;-74
2023/06/16 09:22:33;;;;;;;;;13.33;13.00;;;;;41.30;25.04;100428.91;5021053;28;45643;-75
2023/06/16 09:25:00;;;;;;;;;11.33;11.00;;;;;41.56;25.58;100452.78;5038008;28;45609;-75
2023/06/16 09:27:43;;;;;;;;;12.00;11.67;;;;;41.72;24.49;100469.41;5038779;28;45470;-74
2023/06/16 09:30:14;;;;;;;;;12.00;11.33;;;;;42.03;24.63;100458.91;5038809;28;45244;-76
2023/06/16 09:32:41;;;;;;;;;7.67;7.00;;;;;42.07;24.79;100465.78;5039874;28;45272;-74
2023/06/16 09:35:20;;;;;;;;;13.67;12.67;;;;;42.07;24.40;100459.44;5038883;28;45469;-78
2023/06/16 09:37:47;;;;;;;;;11.33;11.33;;;;;41.79;24.79;100456.81;5038862;28;45290;-77
2023/06/16 09:40:14;;;;;;;;;12.00;11.33;;;;;40.73;25.85;100451.03;5039815;28;45347;-74
2023/06/16 09:42:41;;;;;;;;;13.00;13.00;;;;;40.68;25.47;100453.34;5039300;28;45256;-76
2023/06/16 09:45:14;;;;;;;;;12.00;11.67;;;;;40.29;26.01;100443.41;5038105;28;46496;-76
2023/06/16 09:47:47;;;;;;;;;13.67;13.33;;;;;40.10;26.70;100448.94;5038989;28;45377;-74
2023/06/16 09:50:15;;;;;;;;;13.33;13.33;;;;;39.79;26.75;100446.34;5038985;28;45318;-75
2023/06/16 09:52:45;;;;;;;;;13.00;13.00;;;;;40.20;26.34;100443.44;5036593;28;45558;-76
2023/06/16 09:55:12;;;;;;;;;10.67;10.33;;;;;40.31;26.08;100438.69;5037871;28;45452;-75
2023/06/16 09:57:43;;;;;;;;;11.33;11.33;;;;;40.40;27.03;100441.53;5038244;28;45426;-76
2023/06/16 10:00:15;;;;;;;;;13.00;12.33;;;;;40.85;27.01;100438.88;5020591;28;45521;-76
2023/06/16 10:02:51;;;;;;;;;14.33;13.67;;;;;40.65;25.69;100448.16;5038036;28;45617;-75
2023/06/16 10:05:19;;;;;;;;;12.00;12.00;;;;;41.11;26.12;100443.63;5037632;28;45595;-75
2023/06/16 10:07:50;;;;;;;;;14.67;13.00;;;;;41.15;25.71;100423.09;5019551;28;45571;-74
2023/06/16 10:10:19;;;;;;;;;13.67;13.33;;;;;41.22;25.22;100431.59;5037975;28;45312;-76
2023/06/16 10:12:48;;;;;;;;;14.00;13.67;;;;;40.83;25.84;100423.59;5037878;28;45285;-75
2023/06/16 10:15:24;;;;;;;;;11.33;11.33;;;;;40.23;26.49;100408.44;5019946;28;45579;-74
2023/06/16 10:17:51;;;;;;;;;13.00;13.00;;;;;40.42;26.39;100420.34;5047222;28;45416;-76
2023/06/16 10:20:20;;;;;;;;;15.00;14.67;;;;;40.13;26.26;100416.66;5052802;28;45575;-75
2023/06/16 10:22:46;;;;;;;;;11.33;11.33;;;;;39.64;26.99;100410.41;5036866;28;45981;-74
2023/06/16 10:25:12;;;;;;;;;14.00;14.00;;;;;39.56;27.87;100419.34;5036145;28;48112;-74
2023/06/16 10:27:40;;;;;;;;;12.00;12.00;;;;;39.14;28.18;100410.53;5036136;28;45557;-76
2023/06/16 10:30:09;;;;;;;;;14.67;14.33;;;;;38.65;28.60;100401.34;5036279;28;45418;-74
2023/06/16 10:32:35;;;;;;;;;13.33;12.67;;;;;38.28;29.66;100391.00;5036393;28;45541;-75
2023/06/16 10:35:01;;;;;;;;;14.33;13.67;;;;;37.71;30.04;100412.34;5037285;28;46080;-75
2023/06/16 10:37:29;;;;;;;;;11.67;11.67;;;;;37.73;30.95;100399.44;5037517;28;45490;-74
2023/06/16 10:39:56;;;;;;;;;12.33;11.67;;;;;37.19;30.83;100413.03;5037551;28;45371;-75
2023/06/16 10:42:21;;;;;;;;;13.00;12.67;;;;;36.70;32.01;100410.78;5037415;28;45596;-76
2023/06/16 10:44:47;;;;;;;;;13.33;13.00;;;;;36.11;32.83;100399.13;5037610;28;45247;-74
2023/06/16 10:47:13;;;;;;;;;14.33;13.33;;;;;35.98;33.50;100403.78;5042137;28;45538;-74
2023/06/16 10:50:01;;;;;;;;;14.67;13.67;;;;;35.71;33.86;100401.38;5056495;28;45259;-74
2023/06/16 10:52:33;;;;;;;;;14.33;13.67;;;;;35.72;33.78;100405.84;5057969;28;45472;-74
2023/06/16 10:55:17;;;;;;;;;13.00;13.00;;;;;35.64;33.89;100409.13;5056640;28;45361;-75
2023/06/16 10:57:43;;;;;;;;;13.33;13.00;;;;;35.41;34.66;100405.44;5056157;28;45367;-76
2023/06/16 11:00:14;;;;;;;;;12.67;11.33;;;;;35.40;34.99;100404.59;5056465;28;45206;-74
2023/06/16 11:02:52;;;;;;;;;11.00;10.00;;;;;35.42;34.71;100399.03;5041195;28;45473;-74
2023/06/16 11:05:22;;;;;;;;;10.00;9.67;;;;;35.43;34.31;100388.03;5020322;28;48036;-74
2023/06/16 11:08:05;;;;;;;;;13.33;13.33;;;;;35.44;35.11;100387.06;5038993;28;45417;-75
2023/06/16 11:10:50;;;;;;;;;15.00;14.00;;;;;35.30;35.09;100381.84;5038824;28;45423;-74
2023/06/16 11:13:19;;;;;;;;;13.33;12.00;;;;;35.14;34.99;100387.53;5038581;28;45229;-74
2023/06/16 11:15:45;;;;;;;;;9.00;9.00;;;;;34.79;35.37;100371.19;5038557;28;46114;-75
2023/06/16 11:18:16;;;;;;;;;14.00;13.67;;;;;34.43;35.91;100354.75;5049662;28;45307;-74
2023/06/16 11:20:42;;;;;;;;;12.33;11.67;;;;;34.71;35.48;100387.16;5056701;28;45339;-75
2023/06/16 11:23:08;;;;;;;;;13.00;12.67;;;;;34.63;35.87;100387.69;5057459;28;45324;-75